Time;durP1;ratioP1;P1;durP2;ratioP2;P2;SDS_P1;SDS_P2;PMS_P1;PMS_P2;Temp;Humidity;BMP_temperature;BMP_pressure;BME280_temperature;BME280_humidity;BME280_pressure;Samples;Min_cycle;Max_cycle;Signal;HPM_P1;HPM_P2
2022/12/20 00:01:27;;;;;;;25.38;4.95;;;12.60;99.90;;;;;;5048070;28;20863;-75
2022/12/20 00:03:54;;;;;;;20.92;4.68;;;12.60;99.90;;;;;;5065316;28;20067;-73
2022/12/20 00:06:22;;;;;;;20.10;4.32;;;12.60;99.90;;;;;;5064850;28;20035;-73
2022/12/20 00:08:53;;;;;;;17.30;3.95;;;12.60;99.90;;;;;;5052391;28;20020;-76
2022/12/20 00:11:19;;;;;;;26.50;5.40;;;;;;;;;;5065886;28;20024;-78
2022/12/20 00:13:46;;;;;;;22.00;4.32;;;;;;;;;;5059071;28;20750;-77
2022/12/20 00:16:18;;;;;;;16.55;3.55;;;12.60;99.90;;;;;;5030792;28;20029;-73
2022/12/20 00:18:45;;;;;;;19.00;4.60;;;;;;;;;;5042960;28;20021;-76
2022/12/20 00:21:13;;;;;;;18.73;4.82;;;12.70;99.90;;;;;;5041410;28;20524;-75
2022/12/20 00:23:39;;;;;;;22.98;4.88;;;12.70;99.90;;;;;;5031271;28;20033;-74
2022/12/20 00:26:15;;;;;;;21.10;3.67;;;12.60;99.90;;;;;;5041892;28;20033;-78
2022/12/20 00:28:41;;;;;;;17.95;4.80;;;12.60;99.90;;;;;;5043168;28;20016;-76
2022/12/20 00:31:12;;;;;;;22.60;5.35;;;12.60;99.90;;;;;;5052424;28;20040;-74
2022/12/20 00:33:39;;;;;;;23.58;5.70;;;12.20;99.90;;;;;;5029715;28;20108;-77
2022/12/20 00:36:06;;;;;;;17.52;4.18;;;12.70;99.90;;;;;;5034561;28;20057;-75
2022/12/20 00:38:33;;;;;;;22.98;4.72;;;12.70;99.90;;;;;;5040611;28;20024;-80
2022/12/20 00:41:00;;;;;;;23.63;4.82;;;12.60;99.90;;;;;;5035204;28;20025;-77
2022/12/20 00:43:26;;;;;;;21.42;4.47;;;12.70;99.90;;;;;;5042329;28;20646;-76
2022/12/20 00:45:52;;;;;;;21.08;5.07;;;12.70;99.90;;;;;;5034062;28;20044;-77
2022/12/20 00:48:18;;;;;;;22.88;6.32;;;12.70;99.90;;;;;;5042066;28;20024;-76
2022/12/20 00:50:43;;;;;;;17.38;4.38;;;12.70;99.90;;;;;;5040496;28;20056;-74
2022/12/20 00:53:09;;;;;;;28.92;5.20;;;12.70;99.90;;;;;;5038753;28;20036;-75
2022/12/20 00:55:39;;;;;;;21.42;5.15;;;12.70;99.90;;;;;;5041650;28;20056;-78
2022/12/20 00:58:05;;;;;;;20.75;4.80;;;12.70;99.90;;;;;;5035332;28;20140;-76
2022/12/20 01:00:31;;;;;;;20.80;4.72;;;12.70;99.90;;;;;;5044331;28;20112;-76
2022/12/20 01:02:56;;;;;;;22.90;5.97;;;12.70;99.90;;;;;;5046860;28;20028;-74
2022/12/20 01:05:22;;;;;;;22.33;5.65;;;12.70;99.90;;;;;;5049153;28;20120;-76
2022/12/20 01:07:47;;;;;;;18.35;4.30;;;12.70;99.90;;;;;;5040724;28;20037;-75
2022/12/20 01:10:13;;;;;;;22.48;5.70;;;12.70;99.90;;;;;;5037105;28;20037;-76
2022/12/20 01:12:39;;;;;;;18.23;4.43;;;12.70;99.90;;;;;;5047234;28;20025;-77
2022/12/20 01:15:05;;;;;;;22.00;4.57;;;12.80;99.90;;;;;;5036640;28;20075;-74
2022/12/20 01:17:31;;;;;;;17.40;4.50;;;12.80;99.90;;;;;;5046934;28;20025;-76
2022/12/20 01:19:56;;;;;;;29.20;4.75;;;12.80;99.90;;;;;;5048235;28;20407;-76
2022/12/20 01:22:22;;;;;;;21.45;4.28;;;12.80;99.90;;;;;;5037771;28;20037;-76
2022/12/20 01:24:48;;;;;;;17.92;4.63;;;12.80;99.90;;;;;;5049256;28;20154;-74
2022/12/20 01:27:13;;;;;;;27.92;5.65;;;12.80;99.90;;;;;;5036777;28;20053;-74
2022/12/20 01:29:39;;;;;;;22.08;4.60;;;12.70;99.90;;;;;;5035198;28;20116;-76
2022/12/20 01:32:04;;;;;;;18.48;4.90;;;12.80;99.90;;;;;;5039123;28;20083;-78
2022/12/20 01:34:30;;;;;;;23.77;4.68;;;12.70;99.90;;;;;;5032126;28;20399;-77
2022/12/20 01:36:55;;;;;;;21.63;5.38;;;12.70;99.90;;;;;;5035867;28;20551;-73
2022/12/20 01:39:21;;;;;;;20.60;4.85;;;12.80;99.90;;;;;;5043727;28;20064;-77
2022/12/20 01:41:47;;;;;;;23.55;4.80;;;12.80;99.90;;;;;;5037563;28;20818;-76
2022/12/20 01:44:16;;;;;;;21.98;5.32;;;12.80;99.90;;;;;;5044153;28;20029;-77
2022/12/20 01:46:42;;;;;;;16.60;4.70;;;12.70;99.90;;;;;;5036786;28;20092;-76
2022/12/20 01:49:10;;;;;;;21.17;4.68;;;12.70;99.90;;;;;;5038566;28;20027;-74
2022/12/20 01:51:41;;;;;;;15.43;4.22;;;12.70;99.90;;;;;;5034859;28;20067;-75
2022/12/20 01:54:15;;;;;;;21.80;4.88;;;12.70;99.90;;;;;;5045867;28;20029;-78
2022/12/20 01:56:46;;;;;;;19.33;4.30;;;12.70;99.90;;;;;;5049018;28;20075;-75
2022/12/20 01:59:12;;;;;;;15.40;4.68;;;12.70;99.90;;;;;;5040341;28;20041;-75
2022/12/20 02:01:40;;;;;;;22.80;5.03;;;12.70;99.90;;;;;;5037871;28;20041;-78
2022/12/20 02:04:05;;;;;;;19.73;4.50;;;12.70;99.90;;;;;;5042621;28;20029;-75
2022/12/20 02:06:31;;;;;;;18.83;3.97;;;12.70;99.90;;;;;;5040452;28;20043;-75
2022/12/20 02:08:59;;;;;;;18.25;4.30;;;12.70;99.90;;;;;;5037855;28;20116;-75
2022/12/20 02:11:44;;;;;;;19.67;4.60;;;12.60;99.90;;;;;;5050727;28;20041;-73
2022/12/20 02:14:40;;;;;;;20.60;3.97;;;12.60;99.90;;;;;;5052458;28;20029;-75
2022/12/20 02:17:14;;;;;;;15.32;4.03;;;12.60;99.90;;;;;;5036444;28;20034;-74
2022/12/20 02:20:00;;;;;;;15.55;4.13;;;12.60;99.90;;;;;;5074542;28;20031;-74
2022/12/20 02:22:38;;;;;;;17.65;3.70;;;12.60;99.90;;;;;;5050231;28;20033;-77
2022/12/20 02:25:40;;;;;;;17.52;4.15;;;12.60;99.90;;;;;;5036825;28;20483;-74
2022/12/20 02:28:46;;;;;;;18.17;3.63;;;12.60;99.90;;;;;;5030847;28;20036;-75
2022/12/20 02:31:17;;;;;;;16.50;3.53;;;12.60;99.90;;;;;;5028273;28;20042;-75
2022/12/20 02:33:46;;;;;;;17.25;3.92;;;12.60;99.90;;;;;;5033930;28;20033;-75
2022/12/20 02:36:15;;;;;;;15.70;3.87;;;12.50;99.90;;;;;;5045909;28;20051;-75
2022/12/20 02:38:41;;;;;;;17.33;3.90;;;12.50;99.90;;;;;;5032739;28;20040;-75
2022/12/20 02:41:12;;;;;;;16.75;3.80;;;12.50;99.90;;;;;;5036688;28;20041;-77
2022/12/20 02:46:26;;;;;;;18.35;3.70;;;12.50;99.90;;;;;;5041479;28;20079;-77
2022/12/20 02:48:57;;;;;;;19.55;4.75;;;12.50;99.90;;;;;;5040385;28;20511;-72
2022/12/20 02:51:25;;;;;;;14.10;4.00;;;12.50;99.90;;;;;;5032509;28;20044;-74
2022/12/20 02:53:51;;;;;;;14.45;3.47;;;12.50;99.90;;;;;;5043382;28;20094;-74
2022/12/20 02:56:32;;;;;;;14.07;4.25;;;12.50;99.90;;;;;;5040641;28;20033;-73
2022/12/20 02:59:13;;;;;;;17.27;4.47;;;12.40;99.90;;;;;;5030374;28;20051;-75
2022/12/20 03:02:06;;;;;;;13.35;3.72;;;12.40;99.90;;;;;;5037860;28;20052;-76
2022/12/20 03:04:35;;;;;;;16.02;4.15;;;12.40;99.90;;;;;;5028831;28;20073;-73
2022/12/20 03:07:10;;;;;;;11.80;3.45;;;12.40;99.90;;;;;;5031419;28;20029;-72
2022/12/20 03:09:43;;;;;;;14.90;3.97;;;12.30;99.90;;;;;;5035965;28;20078;-73
2022/12/20 03:12:10;;;;;;;16.33;3.83;;;12.40;99.90;;;;;;5037127;28;20033;-73
2022/12/20 03:14:37;;;;;;;19.38;4.90;;;12.40;99.90;;;;;;5038304;28;20048;-74
2022/12/20 03:17:03;;;;;;;26.13;4.72;;;12.40;99.90;;;;;;5037101;28;20060;-72
2022/12/20 03:19:29;;;;;;;15.00;4.40;;;12.40;99.90;;;;;;5038672;28;20060;-72
2022/12/20 03:21:54;;;;;;;16.50;4.55;;;12.30;99.90;;;;;;5038765;28;20033;-74
2022/12/20 03:24:20;;;;;;;22.42;4.60;;;12.40;99.90;;;;;;5034053;28;20033;-76
2022/12/20 03:26:46;;;;;;;19.33;4.43;;;12.30;99.90;;;;;;5037617;28;20041;-74
2022/12/20 03:29:11;;;;;;;15.95;4.88;;;12.30;99.90;;;;;;5030205;28;20061;-78
2022/12/20 03:31:37;;;;;;;14.00;4.25;;;12.30;99.90;;;;;;5030638;28;20369;-75
2022/12/20 03:34:04;;;;;;;17.17;5.05;;;12.30;99.90;;;;;;5031346;28;20043;-73
2022/12/20 03:36:29;;;;;;;17.25;4.85;;;12.30;99.90;;;;;;5028754;28;20480;-76
2022/12/20 03:38:56;;;;;;;18.15;4.82;;;;;;;;;;5030815;28;20038;-76
2022/12/20 03:41:22;;;;;;;17.27;4.38;;;12.30;99.90;;;;;;5035022;28;20075;-75
2022/12/20 03:43:48;;;;;;;20.88;4.78;;;12.30;99.90;;;;;;5031480;28;20034;-73
2022/12/20 03:46:14;;;;;;;15.77;4.75;;;;;;;;;;5033166;28;20033;-76
2022/12/20 03:48:40;;;;;;;14.55;4.68;;;;;;;;;;5041084;28;20557;-74
2022/12/20 03:51:06;;;;;;;18.75;5.00;;;;;;;;;;5031914;28;20061;-73
2022/12/20 03:53:32;;;;;;;18.95;6.15;;;;;;;;;;5034014;28;20037;-74
2022/12/20 03:55:58;;;;;;;22.23;5.53;;;12.40;99.90;;;;;;5028586;28;20029;-76
2022/12/20 03:58:24;;;;;;;23.13;5.53;;;12.40;99.90;;;;;;5030278;28;20033;-77
2022/12/20 04:00:50;;;;;;;18.48;5.13;;;12.40;99.90;;;;;;5038923;28;20029;-74
2022/12/20 04:03:15;;;;;;;19.38;4.95;;;12.30;99.90;;;;;;5036533;28;20442;-76
2022/12/20 04:05:41;;;;;;;17.92;5.00;;;12.30;99.90;;;;;;5030265;28;20029;-75
2022/12/20 04:08:07;;;;;;;20.38;4.85;;;;;;;;;;5032321;28;20048;-75
2022/12/20 04:11:14;;;;;;;13.27;3.80;;;;;;;;;;5037913;28;20464;-71
2022/12/20 04:13:19;;;;;;;13.77;4.38;;;;;;;;;;5031004;28;20041;-74
2022/12/20 04:15:45;;;;;;;17.60;4.13;;;;;;;;;;5035109;28;20025;-74
2022/12/20 04:18:11;;;;;;;10.55;3.97;;;;;;;;;;5027748;28;20117;-74
2022/12/20 04:20:37;;;;;;;14.70;3.90;;;;;;;;;;5050048;28;20104;-74
2022/12/20 04:23:03;;;;;;;14.98;4.40;;;;;;;;;;5035418;28;20033;-73
2022/12/20 04:25:29;;;;;;;14.73;4.32;;;;;;;;;;5032341;28;20029;-73
2022/12/20 04:27:55;;;;;;;16.50;4.28;;;;;;;;;;5047530;28;20197;-75
2022/12/20 04:30:21;;;;;;;15.73;4.18;;;;;;;;;;5028547;28;20556;-74
2022/12/20 04:32:47;;;;;;;18.60;3.97;;;;;;;;;;5043450;28;20106;-76
2022/12/20 04:35:12;;;;;;;18.15;5.13;;;12.30;99.90;;;;;;5029003;28;20399;-75
2022/12/20 04:37:38;;;;;;;17.40;4.65;;;12.40;99.90;;;;;;5030409;28;20025;-75
2022/12/20 04:40:04;;;;;;;19.95;4.68;;;;;;;;;;5042756;28;20032;-74
2022/12/20 04:42:30;;;;;;;19.95;4.63;;;;;;;;;;5039196;28;20653;-75
2022/12/20 04:44:56;;;;;;;12.30;4.18;;;;;;;;;;5036890;28;20033;-76
2022/12/20 04:47:22;;;;;;;18.05;4.10;;;12.30;99.90;;;;;;5032039;28;20514;-75
2022/12/20 04:49:47;;;;;;;14.35;4.22;;;12.30;99.90;;;;;;5037070;28;20025;-75
2022/12/20 04:54:57;;;;;;;14.27;3.92;;;12.30;99.90;;;;;;5040710;28;20530;-72
2022/12/20 04:57:23;;;;;;;18.42;4.13;;;;;;;;;;5042689;28;20037;-78
2022/12/20 04:59:49;;;;;;;15.73;4.35;;;;;;;;;;5043871;28;20041;-73
2022/12/20 05:02:15;;;;;;;18.60;4.80;;;;;;;;;;5037891;28;20036;-74
2022/12/20 05:04:42;;;;;;;15.32;4.53;;;;;;;;;;5047362;28;20025;-74
2022/12/20 05:07:08;;;;;;;16.88;4.00;;;;;;;;;;5062787;28;20059;-76
2022/12/20 05:09:33;;;;;;;13.65;3.85;;;12.50;99.90;;;;;;5065617;28;20055;-75
2022/12/20 05:11:59;;;;;;;20.75;4.57;;;;;;;;;;5036811;28;20047;-74
2022/12/20 05:14:25;;;;;;;15.23;4.35;;;12.40;99.90;;;;;;5047265;28;20021;-74
2022/12/20 05:16:50;;;;;;;16.77;4.25;;;12.50;99.90;;;;;;5034633;28;20116;-74
2022/12/20 05:19:16;;;;;;;14.90;4.53;;;;;;;;;;5048751;28;20067;-73
2022/12/20 05:27:10;;;;;;;17.63;5.07;;;12.40;99.90;;;;;;5031685;28;20395;-73
2022/12/20 05:29:35;;;;;;;15.80;4.85;;;12.50;99.90;;;;;;5030537;28;20061;-74
2022/12/20 05:32:01;;;;;;;22.35;5.85;;;12.40;99.90;;;;;;5032360;28;20041;-74
2022/12/20 05:34:27;;;;;;;19.90;4.85;;;12.50;99.90;;;;;;5040960;28;20113;-72
2022/12/20 05:36:52;;;;;;;19.92;4.95;;;12.50;99.90;;;;;;5029129;28;20403;-75
2022/12/20 05:39:18;;;;;;;19.27;5.70;;;12.50;99.90;;;;;;5042811;28;20025;-73
2022/12/20 05:41:44;;;;;;;22.05;5.68;;;12.50;99.90;;;;;;5032394;28;20057;-74
2022/12/20 05:44:09;;;;;;;19.90;5.18;;;12.50;99.90;;;;;;5036533;28;20047;-73
2022/12/20 05:46:35;;;;;;;17.40;4.70;;;12.40;99.90;;;;;;5030441;28;20049;-73
2022/12/20 05:49:01;;;;;;;15.02;4.72;;;12.50;99.90;;;;;;5037427;28;20072;-73
2022/12/20 05:51:26;;;;;;;25.02;5.60;;;12.80;99.90;;;;;;5039313;28;20057;-74
2022/12/20 05:53:52;;;;;;;18.13;4.65;;;12.40;99.90;;;;;;5038879;28;20055;-78
2022/12/20 05:56:18;;;;;;;18.95;4.97;;;;;;;;;;5037506;28;20045;-73
2022/12/20 05:58:43;;;;;;;19.20;5.85;;;12.50;99.90;;;;;;5049072;28;20024;-74
2022/12/20 06:01:09;;;;;;;24.67;6.72;;;12.50;99.90;;;;;;5048414;28;20467;-76
2022/12/20 06:03:36;;;;;;;21.48;5.57;;;12.40;99.90;;;;;;5048692;28;20510;-74
2022/12/20 06:06:02;;;;;;;24.42;6.32;;;12.40;99.90;;;;;;5048090;28;20515;-73
2022/12/20 06:08:28;;;;;;;21.58;5.05;;;12.40;99.90;;;;;;5046398;28;20391;-73
2022/12/20 06:10:54;;;;;;;21.85;5.53;;;12.40;99.90;;;;;;5039797;28;20034;-73
2022/12/20 06:13:20;;;;;;;23.98;5.80;;;12.40;99.90;;;;;;5040953;28;20813;-74
2022/12/20 06:15:46;;;;;;;21.90;6.00;;;12.40;99.90;;;;;;5047560;28;20025;-75
2022/12/20 06:18:12;;;;;;;18.52;5.45;;;12.50;99.90;;;;;;5048312;28;20037;-74
2022/12/20 06:20:38;;;;;;;22.15;5.63;;;12.50;99.90;;;;;;5047824;28;20426;-74
2022/12/20 06:23:04;;;;;;;22.10;6.03;;;12.50;99.90;;;;;;5047938;28;20471;-74
2022/12/20 06:25:30;;;;;;;24.30;6.30;;;12.50;99.90;;;;;;5039350;28;20040;-75
2022/12/20 06:27:56;;;;;;;25.42;5.72;;;12.50;99.90;;;;;;5029170;28;20332;-75
2022/12/20 06:30:22;;;;;;;28.25;5.93;;;12.60;99.90;;;;;;5035799;28;20443;-74
2022/12/20 06:32:47;;;;;;;20.83;5.63;;;12.60;99.90;;;;;;5029343;28;20033;-72
2022/12/20 06:35:13;;;;;;;20.40;5.40;;;12.60;99.90;;;;;;5033932;28;20491;-75
2022/12/20 06:37:40;;;;;;;22.77;6.15;;;12.70;99.90;;;;;;5037503;28;20091;-74
2022/12/20 06:40:08;;;;;;;28.55;5.80;;;12.70;99.90;;;;;;5033545;28;20025;-75
2022/12/20 06:42:34;;;;;;;21.90;5.15;;;12.70;99.90;;;;;;5035293;28;20045;-73
2022/12/20 06:45:00;;;;;;;20.20;5.43;;;12.70;99.90;;;;;;5035651;28;20044;-74
2022/12/20 06:47:25;;;;;;;27.98;6.93;;;12.70;99.90;;;;;;5029741;28;20047;-73
2022/12/20 06:49:51;;;;;;;29.52;6.93;;;12.70;99.90;;;;;;5031406;28;20029;-73
2022/12/20 06:52:16;;;;;;;22.05;5.78;;;12.70;99.90;;;;;;5035638;28;20044;-71
2022/12/20 06:54:42;;;;;;;20.85;5.38;;;12.70;99.90;;;;;;5033659;28;20067;-74
2022/12/20 06:57:08;;;;;;;26.40;6.93;;;12.70;99.90;;;;;;5043162;28;20036;-73
2022/12/20 06:59:34;;;;;;;23.17;6.13;;;12.70;99.90;;;;;;5036787;28;20041;-75
2022/12/20 07:01:59;;;;;;;23.77;5.50;;;12.70;99.90;;;;;;5044883;28;20037;-76
2022/12/20 07:04:25;;;;;;;20.00;4.88;;;12.70;99.90;;;;;;5033068;28;20116;-73
2022/12/20 07:06:50;;;;;;;28.02;6.63;;;12.80;99.90;;;;;;5033535;28;20033;-76
2022/12/20 07:09:16;;;;;;;26.25;5.28;;;12.80;99.90;;;;;;5034863;28;20037;-78
2022/12/20 07:11:42;;;;;;;23.70;4.47;;;12.80;99.90;;;;;;5041903;28;20591;-75
2022/12/20 07:14:07;;;;;;;23.33;4.82;;;12.80;99.90;;;;;;5032659;28;20059;-73
2022/12/20 07:16:33;;;;;;;22.15;3.80;;;12.80;99.90;;;;;;5034362;28;20026;-79
2022/12/20 07:18:58;;;;;;;17.10;3.58;;;12.80;99.90;;;;;;5036984;28;20024;-75
2022/12/20 07:21:24;;;;;;;22.85;3.90;;;12.70;99.90;;;;;;5033305;28;20025;-75
2022/12/20 07:23:50;;;;;;;24.48;3.97;;;12.60;99.90;;;;;;5034728;28;20140;-76
2022/12/20 07:26:15;;;;;;;18.88;3.50;;;12.60;99.90;;;;;;5038079;28;20509;-75
2022/12/20 07:28:42;;;;;;;14.80;2.72;;;12.60;99.90;;;;;;5028406;28;20048;-79
2022/12/20 07:31:08;;;;;;;20.35;3.05;;;12.50;99.90;;;;;;5029236;28;20034;-76
2022/12/20 07:33:34;;;;;;;20.42;3.10;;;12.40;99.90;;;;;;5031121;28;20045;-74
2022/12/20 07:36:05;;;;;;;20.92;3.15;;;12.30;99.90;;;;;;5036435;28;20132;-77
2022/12/20 07:38:30;;;;;;;29.65;3.85;;;12.20;99.90;;;;;;5042661;28;20064;-76
2022/12/20 07:40:56;;;;;;;23.35;3.60;;;12.20;99.90;;;;;;5034361;28;20427;-75
2022/12/20 07:43:22;;;;;;;27.92;3.70;;;12.10;99.90;;;;;;5039406;28;20037;-80
2022/12/20 07:45:47;;;;;;;17.27;3.40;;;12.10;99.90;;;;;;5034985;28;20024;-74
2022/12/20 07:48:13;;;;;;;21.40;3.20;;;12.00;99.90;;;;;;5041149;28;20467;-74
2022/12/20 07:50:40;;;;;;;27.95;4.43;;;12.00;99.90;;;;;;5031239;28;20025;-77
2022/12/20 07:53:08;;;;;;;20.48;2.95;;;12.00;99.90;;;;;;5021898;28;20082;-76
2022/12/20 07:55:35;;;;;;;27.30;4.22;;;11.90;99.90;;;;;;5031622;28;20446;-78
2022/12/20 07:58:06;;;;;;;19.33;3.30;;;11.90;99.90;;;;;;5036322;28;21010;-76
2022/12/20 08:00:32;;;;;;;20.27;3.45;;;11.90;99.90;;;;;;5032492;28;20064;-75
2022/12/20 08:03:06;;;;;;;26.00;3.47;;;11.80;99.90;;;;;;5039892;28;20029;-74
2022/12/20 08:05:34;;;;;;;27.95;4.03;;;11.80;99.90;;;;;;5032909;28;20056;-75
2022/12/20 08:08:01;;;;;;;28.02;4.90;;;11.70;99.90;;;;;;5040376;28;20147;-74
2022/12/20 08:10:27;;;;;;;27.63;3.30;;;11.70;99.90;;;;;;5040467;28;20028;-75
2022/12/20 08:12:54;;;;;;;24.23;4.32;;;11.70;99.90;;;;;;5049939;28;20106;-74
2022/12/20 08:15:21;;;;;;;27.98;4.72;;;11.70;99.90;;;;;;5043654;28;20503;-74
2022/12/20 08:17:48;;;;;;;31.55;4.22;;;11.70;99.90;;;;;;5043051;28;20033;-75
2022/12/20 08:20:14;;;;;;;24.30;4.00;;;11.60;99.90;;;;;;5040376;28;20025;-74
2022/12/20 08:22:39;;;;;;;36.53;4.28;;;11.50;99.90;;;;;;5041842;28;20497;-73
2022/12/20 08:25:06;;;;;;;27.65;3.70;;;11.50;99.90;;;;;;5032319;28;20095;-72
2022/12/20 08:27:32;;;;;;;28.55;3.88;;;11.50;99.90;;;;;;5036757;28;20119;-74
2022/12/20 08:29:58;;;;;;;33.65;4.03;;;11.40;99.90;;;;;;5037644;28;20092;-72
2022/12/20 08:32:24;;;;;;;25.92;3.78;;;11.40;99.90;;;;;;5034068;28;20106;-74
2022/12/20 08:34:51;;;;;;;26.65;3.90;;;11.40;99.90;;;;;;5035675;28;20098;-72
2022/12/20 08:37:18;;;;;;;31.58;3.85;;;11.30;99.90;;;;;;5044205;28;20573;-74
2022/12/20 08:39:44;;;;;;;23.98;3.65;;;11.30;99.90;;;;;;5044834;28;20100;-71
2022/12/20 08:42:10;;;;;;;27.05;4.65;;;11.30;99.90;;;;;;5044758;28;20079;-72
2022/12/20 08:44:35;;;;;;;33.38;4.28;;;11.30;99.90;;;;;;5039938;28;20076;-74
2022/12/20 08:47:01;;;;;;;24.90;3.88;;;11.20;99.90;;;;;;5036208;28;20060;-74
2022/12/20 08:49:26;;;;;;;20.13;2.70;;;11.20;99.90;;;;;;5042339;28;20060;-75
2022/12/20 08:51:52;;;;;;;22.20;3.42;;;11.20;99.90;;;;;;5044963;28;20028;-74
2022/12/20 08:54:18;;;;;;;16.27;2.70;;;11.20;99.90;;;;;;5044779;28;20695;-74
2022/12/20 08:56:43;;;;;;;21.75;3.42;;;11.20;99.90;;;;;;5041706;28;20048;-75
2022/12/20 08:59:09;;;;;;;23.05;4.10;;;11.20;99.90;;;;;;5037763;28;20017;-74
2022/12/20 09:01:34;;;;;;;18.77;2.92;;;11.20;99.90;;;;;;5036302;28;20033;-72
2022/12/20 09:04:00;;;;;;;19.17;2.63;;;11.10;99.90;;;;;;5038602;28;20448;-77
2022/12/20 09:06:26;;;;;;;21.35;3.45;;;11.10;99.90;;;;;;5033694;28;20025;-75
2022/12/20 09:08:52;;;;;;;15.82;2.25;;;11.10;99.90;;;;;;5034911;28;20037;-71
2022/12/20 09:11:20;;;;;;;14.05;2.08;;;11.10;99.90;;;;;;5034067;28;20116;-73
2022/12/20 09:13:48;;;;;;;13.60;2.28;;;11.10;99.90;;;;;;5034411;28;20025;-75
2022/12/20 09:16:16;;;;;;;14.63;1.95;;;11.10;99.90;;;;;;5027468;28;20127;-74
2022/12/20 09:18:42;;;;;;;10.15;1.73;;;11.00;99.90;;;;;;5027646;28;20554;-73
2022/12/20 09:21:09;;;;;;;12.68;1.98;;;11.00;99.90;;;;;;5034748;28;20115;-74
2022/12/20 09:23:36;;;;;;;11.25;2.00;;;11.00;99.90;;;;;;5031610;28;20040;-73
2022/12/20 09:26:03;;;;;;;11.05;1.60;;;11.00;99.90;;;;;;5038106;28;20032;-72
2022/12/20 09:28:30;;;;;;;8.82;1.50;;;11.00;99.90;;;;;;5034165;28;20025;-73
2022/12/20 09:31:07;;;;;;;10.73;1.42;;;11.00;99.90;;;;;;5039467;28;20494;-73
2022/12/20 09:33:33;;;;;;;9.70;1.80;;;10.90;99.90;;;;;;5030406;28;20037;-72
2022/12/20 09:36:00;;;;;;;7.93;1.40;;;11.00;99.90;;;;;;5037516;28;20129;-73
2022/12/20 09:38:27;;;;;;;9.15;1.60;;;11.00;99.90;;;;;;5036235;28;20025;-73
2022/12/20 09:40:56;;;;;;;12.13;2.08;;;11.00;99.90;;;;;;5033891;28;20075;-72
2022/12/20 09:43:22;;;;;;;10.38;1.73;;;11.00;99.90;;;;;;5033770;28;20052;-72
2022/12/20 09:45:52;;;;;;;10.13;1.95;;;11.00;99.90;;;;;;5035701;28;20451;-74
2022/12/20 09:48:22;;;;;;;9.55;1.50;;;10.90;99.90;;;;;;5035929;28;20051;-74
2022/12/20 09:50:51;;;;;;;10.23;1.35;;;9.90;99.90;;;;;;5037036;28;20025;-72
2022/12/20 09:54:01;;;;;;;7.80;1.20;;;10.90;99.90;;;;;;5032673;28;20069;-72
2022/12/20 09:56:31;;;;;;;6.30;1.00;;;10.90;99.90;;;;;;5048528;28;20423;-73
2022/12/20 09:59:04;;;;;;;7.65;1.20;;;11.00;99.90;;;;;;5031724;28;20029;-72
2022/12/20 10:01:31;;;;;;;7.53;0.98;;;;;;;;;;5032575;28;20033;-72
2022/12/20 10:04:02;;;;;;;6.78;1.10;;;11.80;99.90;;;;;;5033326;28;20039;-72
2022/12/20 10:06:31;;;;;;;5.95;0.90;;;11.00;99.90;;;;;;5035774;28;20060;-73
2022/12/20 10:09:12;;;;;;;7.25;1.15;;;10.80;99.90;;;;;;5035458;28;20025;-72
2022/12/20 10:12:13;;;;;;;6.30;1.13;;;10.90;99.90;;;;;;5034089;28;20032;-72
2022/12/20 10:14:57;;;;;;;5.13;0.90;;;10.90;99.90;;;;;;5035076;28;20213;-73
2022/12/20 10:17:36;;;;;;;6.13;1.35;;;10.90;99.90;;;;;;5030624;28;20501;-75
2022/12/20 10:20:07;;;;;;;4.15;0.90;;;10.90;99.90;;;;;;5043472;28;20031;-74
2022/12/20 10:22:48;;;;;;;3.60;0.60;;;10.80;99.90;;;;;;5031987;28;20526;-73
2022/12/20 10:25:21;;;;;;;4.57;0.70;;;10.90;99.90;;;;;;5040414;28;20064;-73
2022/12/20 10:27:49;;;;;;;7.00;1.02;;;11.10;99.90;;;;;;5038653;28;20028;-73
2022/12/20 10:30:18;;;;;;;8.48;1.20;;;11.30;99.90;;;;;;5032921;28;20034;-71
2022/12/20 10:32:47;;;;;;;6.10;0.80;;;11.30;99.90;;;;;;5031635;28;20462;-72
2022/12/20 10:35:21;;;;;;;2.97;0.60;;;11.30;99.90;;;;;;5038018;28;20037;-73
2022/12/20 10:37:57;;;;;;;4.85;0.85;;;11.30;99.90;;;;;;5031131;28;20476;-73
2022/12/20 10:40:36;;;;;;;6.00;1.42;;;11.40;99.90;;;;;;5053858;28;20656;-72
2022/12/20 10:43:03;;;;;;;5.45;0.90;;;11.60;99.90;;;;;;5034503;28;20106;-72
2022/12/20 10:45:41;;;;;;;4.38;1.05;;;11.40;99.90;;;;;;5034539;28;20087;-72
2022/12/20 10:48:28;;;;;;;8.52;1.13;;;11.40;99.90;;;;;;5035217;28;20828;-72
2022/12/20 10:51:21;;;;;;;7.10;0.88;;;11.40;99.90;;;;;;5033896;28;20098;-72
2022/12/20 10:53:52;;;;;;;5.25;0.70;;;11.40;99.90;;;;;;5032801;28;20047;-72
2022/12/20 10:56:22;;;;;;;2.72;0.90;;;11.30;99.90;;;;;;5041492;28;20458;-73
2022/12/20 10:59:11;;;;;;;4.45;0.82;;;;;;;;;;5040732;28;20394;-74
2022/12/20 11:01:42;;;;;;;7.18;1.67;;;;;;;;;;5037453;28;20508;-74
2022/12/20 11:04:34;;;;;;;4.43;0.80;;;11.20;99.90;;;;;;5037441;28;20074;-73
2022/12/20 11:07:20;;;;;;;4.05;1.00;;;11.30;99.90;;;;;;5036563;28;20040;-73
2022/12/20 11:09:52;;;;;;;5.40;1.35;;;;;;;;;;5044470;28;20029;-73
2022/12/20 11:12:18;;;;;;;5.68;1.05;;;;;;;;;;5031228;28;20040;-74
2022/12/20 11:14:45;;;;;;;7.18;0.95;;;11.10;99.90;;;;;;5033921;28;20032;-73
2022/12/20 11:17:27;;;;;;;11.40;1.40;;;11.20;99.90;;;;;;5031212;28;20033;-73
2022/12/20 11:19:53;;;;;;;4.22;0.85;;;;;;;;;;5046407;28;20079;-73
2022/12/20 11:22:19;;;;;;;8.80;1.17;;;;;;;;;;5031031;28;20029;-72
2022/12/20 11:25:05;;;;;;;6.72;0.70;;;10.80;99.90;;;;;;5032301;28;20498;-72
2022/12/20 11:27:45;;;;;;;6.57;1.17;;;10.70;99.90;;;;;;5032739;28;20060;-73
2022/12/20 11:30:36;;;;;;;6.43;1.10;;;10.80;99.90;;;;;;5035155;28;20051;-73
2022/12/20 11:33:33;;;;;;;7.80;1.92;;;10.80;99.90;;;;;;5035574;28;20044;-73
2022/12/20 11:35:59;;;;;;;7.65;1.17;;;;;;;;;;5046937;28;20394;-72
2022/12/20 11:38:36;;;;;;;8.05;1.17;;;11.10;99.90;;;;;;5031509;28;20033;-72
2022/12/20 11:41:27;;;;;;;8.18;1.10;;;11.10;99.90;;;;;;5041253;28;20048;-73
2022/12/20 11:44:10;;;;;;;7.18;1.10;;;11.00;99.90;;;;;;5029638;28;20033;-74
2022/12/20 11:46:51;;;;;;;9.82;1.02;;;10.90;99.90;;;;;;5035877;28;20033;-73
2022/12/20 11:49:41;;;;;;;4.72;0.85;;;10.70;99.90;;;;;;5033201;28;20805;-72
2022/12/20 11:52:28;;;;;;;9.57;1.52;;;10.70;99.90;;;;;;5034691;28;20047;-72
2022/12/20 11:55:20;;;;;;;8.35;1.23;;;10.70;99.90;;;;;;5033744;28;20035;-73
2022/12/20 11:57:45;;;;;;;10.38;1.10;;;;;;;;;;5052819;28;21080;-73
2022/12/20 12:00:14;;;;;;;4.00;1.05;;;10.60;99.90;;;;;;5032804;28;20524;-73
2022/12/20 12:02:49;;;;;;;5.65;0.75;;;10.60;99.90;;;;;;5029138;28;20033;-73
2022/12/20 12:05:28;;;;;;;9.52;0.95;;;10.70;99.90;;;;;;5029951;28;20064;-72
2022/12/20 12:08:06;;;;;;;11.32;1.27;;;10.80;99.90;;;;;;5029551;28;20036;-73
2022/12/20 12:10:36;;;;;;;9.35;1.40;;;;;;;;;;5044278;28;20041;-74
2022/12/20 12:13:17;;;;;;;6.47;1.30;;;11.00;99.90;;;;;;5036057;28;20037;-73
2022/12/20 12:16:10;;;;;;;11.32;1.80;;;10.10;99.90;;;;;;5038845;28;20033;-71
2022/12/20 12:18:38;;;;;;;8.38;1.35;;;12.80;99.90;;;;;;5051247;28;20037;-74
2022/12/20 12:21:04;;;;;;;8.65;1.17;;;11.30;99.90;;;;;;5035840;28;20045;-73
2022/12/20 12:23:30;;;;;;;5.53;1.25;;;;;;;;;;5042679;28;20035;-71
2022/12/20 12:25:59;;;;;;;11.25;2.13;;;11.20;99.90;;;;;;5037452;28;20162;-73
2022/12/20 12:28:25;;;;;;;9.73;1.58;;;13.20;99.90;;;;;;5035848;28;20030;-72
2022/12/20 12:30:59;;;;;;;11.68;1.98;;;11.20;99.90;;;;;;5037401;28;20032;-71
2022/12/20 12:33:31;;;;;;;7.32;1.33;;;11.20;99.90;;;;;;5030973;28;20128;-70
2022/12/20 12:35:57;;;;;;;9.23;1.35;;;;;;;;;;5035801;28;20120;-71
2022/12/20 12:38:37;;;;;;;8.63;1.70;;;11.40;99.90;;;;;;5035247;28;20024;-72
2022/12/20 12:41:40;;;;;;;12.95;1.60;;;11.90;99.90;;;;;;5027493;28;20053;-72
2022/12/20 12:44:18;;;;;;;10.98;1.30;;;11.80;99.90;;;;;;5028686;28;20045;-71
2022/12/20 12:46:47;;;;;;;11.45;1.30;;;12.50;99.90;;;;;;5030236;28;20503;-71
2022/12/20 12:49:17;;;;;;;10.02;1.38;;;11.00;99.90;;;;;;5032745;28;20083;-71
2022/12/20 12:51:50;;;;;;;11.32;1.90;;;12.10;99.90;;;;;;5030571;28;20388;-71
2022/12/20 12:54:29;;;;;;;8.25;1.60;;;13.80;99.90;;;;;;5034331;28;20032;-71
2022/12/20 12:57:13;;;;;;;11.63;2.20;;;11.50;99.90;;;;;;5029710;28;20049;-71
2022/12/20 12:59:44;;;;;;;12.98;1.30;;;10.60;99.90;;;;;;5035186;28;20025;-73
2022/12/20 13:02:13;;;;;;;9.00;1.48;;;12.70;99.90;;;;;;5032993;28;20037;-72
2022/12/20 13:05:09;;;;;;;8.70;1.13;;;13.10;99.90;;;;;;5042572;28;20112;-72
2022/12/20 13:07:35;;;;;;;8.60;1.52;;;13.10;99.90;;;;;;5030943;28;20113;-72
2022/12/20 13:10:19;;;;;;;10.15;1.30;;;11.50;99.90;;;;;;5030523;28;20021;-72
2022/12/20 13:12:50;;;;;;;13.43;1.85;;;12.80;99.90;;;;;;5033252;28;20041;-73
2022/12/20 13:15:19;;;;;;;9.48;1.52;;;12.90;99.90;;;;;;5034146;28;20080;-75
2022/12/20 13:17:50;;;;;;;10.50;1.50;;;12.40;99.90;;;;;;5057974;28;20013;-72